Terminal Aerodrome Forecast
Issued by NWS

Home | Current Version | Previous Version | Graphics & Text | Print | Product List | Glossary On
Versions: 1 2 3 4 5 6 7 8 9 10 11 12 13 14 15 16 17 18
000
FTUS41 KCLE 200528
TAFFDY
TAF
KFDY 200528Z 2006/2106 29008KT P6SM BKN025
     FM200900 33004KT P6SM BKN015
     FM201600 04005KT P6SM BKN025
     FM202000 05007KT P6SM BKN035=

USA.gov is the U.S. government's official web portal to all federal, state and local government web resources and services.